Tiempo atmosférico en la estación meteorológica de Talarn, Lleida (799 m.)



Fecha
DESCASC
Temp. máxima en grados centígrados (hora)
DESCASC
Temp. mínima en grados centígrados (hora)
DESCASC
Temp. media en grados centígrados
DESCASC
Racha de viento máxima en m/sg (hora)
DESCASC
Velocidad máxima media en intervalos de 10 minutos(hora)
DESCASC
Precipitaciones diarias en mm
DESCASC
Precipitaciones de 00:00 a 06:00 en mm
DESCASC
Precipitaciones de 06:00 a 12:00 en mm
DESCASC
Precipitaciones de 12:00 a 18:00 en mm
DESCASC
Precipitaciones de 18:00 a 24:00 en mm
DESCASC
02-04-2020 10 (17:20) 5.3 (23:50) 7.7 4.17 (17:30) 2.78 (23:59) 3.4 2 0.8 0.6 0
01-04-2020 9.7 (15:50) 5.9 (00:00) 7.8 6.11 (13:50) 3.61 (18:40) 9 0.2 0.2 3.4 5.2
31-03-2020 8.7 (13:50) 2.6 (00:00) 5.6 5.56 (16:10) 2.78 (22:10) 10.4 0.6 0.2 2.8 6.8
30-03-2020 9.4 (00:00) 1.7 (00:00) 5.5 6.67 (00:10) 4.17 (08:40) 1.8 0 0.2 1.2 0.4
29-03-2020 18.9 (15:00) 3.9 (00:00) 11.4 8.33 (17:30) 5 (23:20) 0.8 0 0 0.8 0
28-03-2020 15.7 (14:30) 3 (00:00) 9.3 9.72 (14:00) 5.83 (14:00) 0 0 0 0 0
27-03-2020 12.6 (13:40) -1.8 (-00:0) 5.4 7.22 (14:10) 4.17 (17:10) 0 0 0 0 0
26-03-2020 10.9 (13:20) 0.1 (00:00) 5.5 10.28 (14:30) 6.67 (12:20) 1.2 0 1.2 0 0
25-03-2020 4.9 (14:30) 1.3 (00:00) 3.1 5 (05:10) 3.61 (20:20) 2 1.6 0.4 0 0
24-03-2020 16.4 (15:10) 4.1 (00:00) 10.2 10 (17:30) 5.83 (17:30) 0.6 0 0 0 0.6
23-03-2020 11.7 (16:50) 5.4 (00:00) 8.5 7.5 (15:00) 5.28 (15:30) 0.6 0 0 0.6 0
22-03-2020 16.2 (15:30) 6 (07:00) 11.1 7.5 (20:20) 4.72 (20:20) 0.2 0 0 0 0.2
21-03-2020 15.7 (15:20) 2.8 (00:00) 9.2 6.94 (14:20) 4.72 (16:50) 0 0 0 0 0
20-03-2020 16.3 (15:00) 5.7 (00:00) 11 7.78 (16:30) 4.72 (16:50) 0 0 0 0 0
19-03-2020 18.5 (15:30) 6.1 (00:00) 12.3 7.5 (16:00) 5.28 (16:30) 0 0 0 0 0
18-03-2020 13.7 (16:10) 6.2 (00:00) 9.9 3.33 (11:40) 2.5 (21:20) 0 0 0 0 0
17-03-2020 12.8 (15:30) 5.5 (00:00) 9.2 4.17 (03:20) 3.06 (03:20) 0.2 0 0.2 0 0
16-03-2020 8.6 (18:10) 6.5 (00:00) 7.6 11.39 (19:00) 6.39 (19:10) 35.4 10 15.4 5.6 4.4
15-03-2020 18.6 (14:30) 6.1 (00:00) 12.4 9.72 (21:00) 5.56 (16:30) 3 0 0 0 3
14-03-2020 16.9 (15:10) 7.4 (00:00) 12.1 6.94 (17:10) 5 (16:50) 0 0 0 0 0
13-03-2020 15.9 (16:00) 9.6 (23:30) 12.8 11.67 (01:20) 7.22 (01:20) 0.6 0.6 0 0 0
12-03-2020 24.4 (16:10) 9.3 (00:00) 16.8 10 (21:20) 6.11 (23:40) 0.6 0 0 0 0.6
11-03-2020 22.3 (16:00) 6.7 (00:00) 14.5 8.61 (19:40) 7.22 (19:40) 0 0 0 0 0
10-03-2020 16 (16:10) 2.7 (00:00) 9.4 4.17 (12:10) 3.33 (05:10) 0 0 0 0 0
09-03-2020 16.4 (15:10) 2.9 (00:00) 9.6 15 (16:20) 7.78 (16:10) 0 0 0 0 0
08-03-2020 16.7 (15:20) 3.5 (00:00) 10.1 8.89 (16:20) 6.11 (15:20) 0 0 0 0 0
07-03-2020 15.1 (16:10) -0.6 (-00:0) 7.3 13.33 (01:10) 8.33 (01:10) 0 0 0 0 0
06-03-2020 12.7 (14:50) -0.5 (-00:0) 6.1 14.44 (21:00) 9.72 (21:00) 0 0 0 0 0
05-03-2020 12.3 (15:50) 4 (00:00) 8.2 16.39 (16:00) 10.83 (17:10) 5.8 0 0.2 5.6 0

Gráficas

Temp. máximas Temp. mínimas Temp. medias Precipitaciones Rachas de viento máximas Velocidades máximas media en intervalos de 10 minutos

Datos horarios

Fecha y hora oficial Temperatura (ºC) Velocidad del viento (km/h) Dirección del viento Racha (km/h) Dirección de racha Precipitación (mm) Presión (hPa) Tendencia (hPa) Humedad (%)
2020-04-03 23:00:00 7.5 9 Nordeste 14 Noroeste 0 923.8 1.6 77
2020-04-03 22:00:00 8.2 8 Norte 15 Norte 0 923.2 1.4 72
2020-04-03 21:00:00 8.7 4 Este 10 Sur 0 922.7 1.2 70
2020-04-03 20:00:00 10.7 3 Este 23 Oeste 0 922.2 1 63
2020-04-03 19:00:00 13.5 15 Oeste 32 Sudoeste 0 921.8 0.4 51
2020-04-03 18:00:00 14.6 18 Oeste 34 Sudoeste 0 921.5 -0.1 48
2020-04-03 17:00:00 15.8 17 Sudoeste 35 Sudoeste 0 921.2 -0.8 46
2020-04-03 16:00:00 15.2 20 Sudoeste 38 Sudoeste 0 921.4 -1.1 46
2020-04-03 15:00:00 14.9 15 Sudoeste 30 Sudoeste 0 921.6 -1.3 47
2020-04-03 14:00:00 12 8 Sur 18 Sur 0 922 -0.7 73
2020-04-03 13:00:00 9.9 8 Sur 18 Sur 0 922.5 0.2 79
2020-04-03 12:00:00 6.7 5 Sur 13 Sur 0 922.9 1.1 100
2020-04-03 11:00:00 5 6 Sudoeste 10 Sudoeste 0 922.7 1.5 100
2020-04-03 10:00:00 4.3 3 Sur 8 Sudoeste 0 922.3 1.7 100
2020-04-03 09:00:00 3.9 4 Sur 8 Sur 0 921.8 1.5 100
2020-04-03 08:00:00 3.4 0 Calma 6 Noroeste 0 921.2 1 100
2020-04-03 07:00:00 3.2 3 Noroeste 5 Sudeste 0 920.6 0.7 99
2020-04-03 06:00:00 2.7 2 Este 7 Norte 0 920.3 0.2 99
2020-04-03 05:00:00 3.3 3 Sudeste 8 Norte 0 920.2 -0.2 96
2020-04-03 04:00:00 4.7 3 Sudeste 6 Sur 0 919.9 -0.6 97
2020-04-03 03:00:00 4.8 3 Sudoeste 9 Norte 0 920.1 -0.3 85
2020-04-03 02:00:00 5.1 6 Noroeste 14 Norte 0 920.4 0.1 70
2020-04-03 01:00:00 5.5 11 Norte 15 Norte 0 920.5 0.7 70
2020-04-03 00:00:00 5.7 10 Norte 13 Noroeste 0 920.4 1.3 82
2020-04-02 23:00:00 6.5 8 Noroeste 11 Noroeste 0 920.3 1.6 94
2020-04-02 22:00:00 7.9 6 Noroeste 8 Norte 0 919.8 1.4 94
2020-04-02 21:00:00 8.5 3 Oeste 5 Sur 0 919.1 1.1 91
2020-04-02 20:00:00 8.9 5 Sudoeste 10 Sur 0 918.7 0.6 90
2020-04-02 19:00:00 9.5 6 Sur 13 Sur 0 918.4 0.2 88
2020-04-02 18:00:00 9.7 8 Sur 15 Sur 0 918 -0.3 88
2020-04-02 17:00:00 9.5 7 Sur 13 Sur 0 918.1 -0.5 87
2020-04-02 16:00:00 9.7 4 Sudoeste 9 Sudoeste 0.2 918.2 -0.7 83
2020-04-02 15:00:00 9.7 2 Oeste 10 Sur 0.4 918.3 -0.7 82
2020-04-02 14:00:00 8.9 4 Sur 10 Sur 0 918.6 -0.2 86
2020-04-02 13:00:00 8 6 Sur 12 Sur 0 918.9 0.6 93
2020-04-02 12:00:00 7.9 5 Sur 10 Sur 0 919 1 95
2020-04-02 11:00:00 7 5 Sur 8 Sur 0 918.8 1 100
2020-04-02 10:00:00 6.4 5 Sur 7 Sur 0 918.3 0.6 100
2020-04-02 09:00:00 6 2 Norte 5 Norte 0.4 918 0.3 100
2020-04-02 08:00:00 5.5 4 Norte 6 Norte 0.2 917.8 -0.1 100
2020-04-02 07:00:00 5.5 0 Calma 3 Sudoeste 0.2 917.7 -0.6 100
2020-04-02 06:00:00 5.7 2 Sur 6 Sudoeste 0.2 917.7 -1.2 100
2020-04-02 05:00:00 5.7 3 Sudoeste 8 Noroeste 0.4 917.9 -1.1 99
2020-04-02 04:00:00 5.7 3 Oeste 6 Oeste 0.6 918.3 -0.9 100
2020-04-02 03:00:00 6 2 Oeste 9 Noroeste 0.2 918.9 -0.6 100
2020-04-02 02:00:00 6.1 5 Noroeste 12 Noroeste 0.6 919 -0.6 100
2020-04-02 01:00:00 6.1 0 Calma 5 Sudoeste 0 919.2 -0.5 100
2020-04-02 00:00:00 6.3 5 Sudoeste 8 Norte 0.2 919.5 0.1 99
2020-04-01 23:00:00 6.3 0 Calma 4 Nordeste 0.4 919.6 0.7 99
2020-04-01 22:00:00 6.3 0 Calma 11 Sudeste 0.8 919.7 1 99
2020-04-01 21:00:00 6.9 4 Sudeste 9 Sur 1.4 919.4 1.1 99
2020-04-01 20:00:00 7 5 Sur 16 Sudoeste 2 918.9 0.1 98
2020-04-01 19:00:00 8.1 9 Sur 18 Sur 0.4 918.7 -0.5 95
2020-04-01 18:00:00 9.2 7 Sur 10 Sur 0 918.3 -1.4 83
2020-04-01 17:00:00 9.5 5 Sudoeste 9 Sudoeste 0 918.8 -1.6 76
2020-04-01 16:00:00 9.5 4 Sur 8 Sur 0 919.2 -1.7 81
2020-04-01 15:00:00 9 4 Sudoeste 12 Norte 0 919.7 -1.2 89
2020-04-01 14:00:00 7.5 10 Noroeste 22 Norte 2.4 920.4 -0.6 90
2020-04-01 13:00:00 7.6 12 Sudoeste 16 Sudoeste 1 920.9 0.2 89
2020-04-01 12:00:00 8.4 4 Sudoeste 10 Sur 0.2 920.9 0.5 82
2020-04-01 11:00:00 8 2 Sudoeste 8 Sur 0 921 0.7 81
2020-04-01 10:00:00 7.4 3 Sudoeste 6 Sur 0 920.7 0.4 92
2020-04-01 09:00:00 6.7 4 Norte 12 Noroeste 0 920.4 -0.3 93
2020-04-01 08:00:00 6.1 10 Norte 13 Norte 0 920.3 -0.6 96
2020-04-01 07:00:00 6.3 5 Oeste 12 Norte 0 920.3 -0.9 91
2020-04-01 06:00:00 6 5 Norte 8 Norte 0 920.7 -0.8 96
2020-04-01 05:00:00 6.2 4 Norte 7 Oeste 0 920.9 -0.7 93
2020-04-01 04:00:00 6.5 5 Oeste 7 Sudoeste 0.2 921.2 -0.5 88
2020-04-01 03:00:00 6.6 4 Oeste 10 Noroeste 0 921.5 -0.2 85
2020-04-01 02:00:00 6.1 7 Norte 9 Norte 0 921.6 -0.1 95
2020-04-01 01:00:00 6.3 3 Sudoeste 7 Norte 0 921.7 0.1 91
2020-04-01 00:00:00 5.9 4 Norte 6 Norte 0.2 921.7 0.3 96
2020-03-31 23:00:00 6.2 6 Sur 12 Norte 0.4 921.7 1.1 93
2020-03-31 22:00:00 6.1 8 Noroeste 10 Noroeste 1.4 921.6 1.5 96
2020-03-31 21:00:00 6.4 4 Sudoeste 7 Sudoeste 2 921.4 1.5 96
2020-03-31 20:00:00 6.8 3 Oeste 8 Sudoeste 1.6 920.6 1 93
2020-03-31 19:00:00 7.2 5 Sudoeste 8 Sudoeste 1.2 920.1 0.4 92
2020-03-31 18:00:00 7.7 4 Sudoeste 6 Sudoeste 0.8 919.9 -0.2 94
2020-03-31 17:00:00 8.2 5 Sur 20 Sur 0.6 919.6 -0.4 96
2020-03-31 16:00:00 8.1 5 Norte 11 Norte 0 919.7 -0.3 90
2020-03-31 15:00:00 8.3 5 Norte 13 Sur 0.4 920.1 0.3 89
2020-03-31 14:00:00 8.5 9 Sur 12 Sur 0.6 920 0.2 83
2020-03-31 13:00:00 7.8 3 Oeste 12 Sudoeste 0.4 920 0.5 82
2020-03-31 12:00:00 7.8 6 Sudoeste 10 Sudoeste 0 919.8 0.3 83
2020-03-31 11:00:00 6.9 2 Oeste 8 Sur 0 919.8 0.4 97
2020-03-31 10:00:00 5.9 4 Sudoeste 8 Sur 0 919.5 0.8 99
2020-03-31 09:00:00 4.9 5 Sudoeste 9 Norte 0 919.5 0.8 99
2020-03-31 08:00:00 4.4 5 Oeste 8 Oeste 0 919.4 0.8 100
2020-03-31 07:00:00 3.6 3 Sudoeste 12 Norte 0.2 918.7 -0.2 99
2020-03-31 06:00:00 3 6 Sudoeste 10 Sur 0 918.7 -0.9 98
2020-03-31 05:00:00 3.1 5 Oeste 15 Norte 0 918.6 -1.3 98
2020-03-31 04:00:00 3.1 8 Norte 12 Norte 0 918.9 -1.3 97
2020-03-31 03:00:00 2.8 3 Sudoeste 5 Oeste 0.2 919.6 -0.9 96
2020-03-31 02:00:00 2.8 3 Nordeste 5 Sur 0 919.9 -0.7 95
2020-03-31 01:00:00 2.6 2 Noroeste 8 Norte 0.4 920.2 -0.3 94
2020-03-31 00:00:00 2.8 2 Nordeste 4 Norte 0.4 920.5 0.1 93
2020-03-30 23:00:00 2.9 3 Sur 10 Sudeste 0 920.6 0.8 90
2020-03-30 22:00:00 3.2 6 Sudeste 10 Este 0 920.5 1 89
2020-03-30 21:00:00 3.8 3 Sudeste 8 Sudeste 0 920.4 0.7 86
2020-03-30 20:00:00 4.2 5 Sudoeste 19 Noroeste 0 919.8 0.1 85
2020-03-30 19:00:00 4.6 8 Norte 14 Sur 0 919.5 -0.5 84
2020-03-30 18:00:00 4.8 8 Sur 15 Sur 0 919.7 -0.6 89
2020-03-30 17:00:00 4.8 4 Sudoeste 9 Sur 0 919.7 -0.7 91
2020-03-30 16:00:00 3.9 6 Sur 13 Sur 0 920 -0.5 95
2020-03-30 15:00:00 3.1 7 Sur 11 Sur 0 920.3 -0.2 95
2020-03-30 14:00:00 2.9 4 Sur 10 Sur 0.4 920.4 0.4 94
2020-03-30 13:00:00 2 5 Oeste 9 Sur 0.8 920.5 1.1 93
2020-03-30 12:00:00 1.9 5 Sur 17 Sur 0.2 920.5 1.4 92
2020-03-30 11:00:00 3.4 10 Sur 16 Sur 0 920 1.4 85
2020-03-30 10:00:00 3.3 4 Sudeste 12 Sudeste 0 919.4 1 89
2020-03-30 09:00:00 3.2 9 Sudeste 22 Sur 0 919.1 0.6 92
2020-03-30 08:00:00 4.2 8 Sudeste 16 Sur 0 918.6 0.1 90
2020-03-30 07:00:00 4.5 9 Sudeste 17 Sudeste 0 918.4 -0.6 88
2020-03-30 06:00:00 5.1 8 Sudeste 13 Sudeste 0 918.5 -0.9 83
2020-03-30 05:00:00 6 8 Sudeste 15 Sudeste 0 918.5 -1.2 79
2020-03-30 04:00:00 6.3 2 Este 17 Sudeste 0 919 -0.9 81
2020-03-30 03:00:00 7.8 3 Noroeste 9 Sudeste 0 919.4 -0.6 69
2020-03-30 02:00:00 8.5 6 Sudeste 12 Nordeste 0 919.7 -0.5 65
2020-03-30 01:00:00 8.8 6 Nordeste 24 Nordeste 0 919.9 -0.6 61
2020-03-30 00:00:00 9.4 14 Nordeste 29 Nordeste 0 920 -0.5 58
2020-03-29 23:00:00 9.5 17 Nordeste 26 Norte 0 920.2 0 61
2020-03-29 22:00:00 9.6 12 Nordeste 19 Nordeste 0 920.5 0.5 62
2020-03-29 21:00:00 9.7 4 Sudeste 24 Nordeste 0 920.5 0.9 65
2020-03-29 20:00:00 10.2 13 Norte 23 Nordeste 0 920.2 0.5 61
2020-03-29 19:00:00 11.7 5 Nordeste 13 Nordeste 0 920 0.3 64
2020-03-29 18:00:00 11.9 6 Nordeste 30 Oeste 0.6 919.6 -0.5 68
2020-03-29 17:00:00 12.7 9 Norte 19 Sur 0.2 919.7 -1.1 74
2020-03-29 16:00:00 14.5 13 Sur 23 Sur 0 919.7 -1.8 54
2020-03-29 15:00:00 17.7 14 Sur 24 Sur 0 920.1 -2 30
2020-03-29 14:00:00 17 13 Sur 21 Sur 0 920.8 -1.7 34
2020-03-29 13:00:00 15 8 Sur 14 Sudoeste 0 921.5 -1.3 43
2020-03-29 12:00:00 12.5 7 Sur 12 Sur 0 922.1 -0.7 57
2020-03-29 11:00:00 10.5 7 Sur 12 Sur 0 922.5 -0.2 64
2020-03-29 10:00:00 8.1 5 Sur 8 Sur 0 922.8 0.2 72
2020-03-29 09:00:00 7.3 3 Sur 5 Sur 0 922.8 0 69
2020-03-29 08:00:00 5.1 3 Oeste 4 Sur 0 922.7 -0.4 76
2020-03-29 07:00:00 4.9 2 Oeste 4 Oeste 0 922.6 -1 74
2020-03-29 06:00:00 5.1 2 Este 4 Sudoeste 0 922.8 -1.2 74
2020-03-29 05:00:00 6.1 3 Este 5 Sur 0 923.1 -1.2 69
2020-03-29 03:00:00 7.8 2 Oeste 5 Este 0 924 -0.5 64
2020-03-29 01:00:00 7.7 0 Calma 14 Norte 0 924.3 0 64
2020-03-29 00:00:00 8.4 11 Norte 15 Norte 0 924.5 0.4 61
2020-03-28 23:00:00 8 2 Norte 14 Nordeste 0 924.5 0.7 59
2020-03-28 22:00:00 9.5 10 Norte 20 Norte 0 924.3 1.1 56
2020-03-28 21:00:00 10 7 Norte 17 Oeste 0 924.1 1.5 55
2020-03-28 20:00:00 11.5 8 Norte 23 Noroeste 0 923.8 1.4 50
2020-03-28 19:00:00 12 13 Noroeste 22 Noroeste 0 923.2 0.7 49
2020-03-28 18:00:00 13.7 12 Oeste 30 Sudoeste 0 922.6 -0.2 44
2020-03-28 17:00:00 13.8 13 Sudoeste 29 Sudoeste 0 922.4 -0.7 44
2020-03-28 16:00:00 14.3 13 Sudoeste 29 Sudoeste 0 922.5 -0.9 42
2020-03-28 15:00:00 15 17 Sudoeste 29 Sudoeste 0 922.8 -1 39
2020-03-28 14:00:00 14 21 Sur 35 Sur 0 923.1 -1 46
2020-03-28 13:00:00 15 15 Sur 29 Sur 0 923.4 -0.7 41
2020-03-28 12:00:00 13.1 11 Sur 18 Sur 0 923.8 0.2 49
2020-03-28 11:00:00 11.1 7 Sur 15 Sur 0 924.1 0.8 53
2020-03-28 10:00:00 8.9 5 Sur 10 Sur 0 924.1 0.9 64
2020-03-28 09:00:00 7.5 6 Sur 11 Sur 0 923.6 0.9 70
2020-03-28 08:00:00 4.8 3 Oeste 10 Noroeste 0 923.3 0.7 79
2020-03-28 07:00:00 3.3 4 Norte 6 Norte 0 923.2 0.5 82
2020-03-28 06:00:00 4.1 3 Noroeste 11 Noroeste 0 922.7 -0.1 72
2020-03-28 05:00:00 3.6 3 Norte 14 Norte 0 922.6 -0.2 74
2020-03-28 04:00:00 4.3 2 Norte 5 Norte 0 922.7 0.1 75
2020-03-28 03:00:00 4.7 3 Oeste 8 Norte 0 922.8 0.2 74
2020-03-28 02:00:00 5.2 3 Sudeste 6 Sur 0 922.8 0.4 73
2020-03-28 01:00:00 5.7 5 Noroeste 6 Noroeste 0 922.6 0.6 70
2020-03-28 00:00:00 5.4 3 Norte 4 Norte 0 922.6 0.8 72
2020-03-27 23:00:00 5.5 2 Norte 9 Norte 0 922.4 1.4 70
2020-03-27 22:00:00 5.6 2 Noroeste 11 Norte 0 922 1.7 67
2020-03-27 21:00:00 6.3 6 Este 12 Sur 0 921.8 2.3 66
2020-03-27 20:00:00 6.4 3 Este 11 Sudeste 0 921 2.1 67
2020-03-27 19:00:00 7.7 7 Sudeste 18 Sudeste 0 920.3 1.4 64
2020-03-27 18:00:00 9.2 13 Sur 20 Sur 0 919.5 0.6 59
2020-03-27 17:00:00 10.8 14 Sur 20 Sur 0 918.9 -0.1 50
2020-03-27 16:00:00 11.1 8 Sur 18 Sur 0 918.9 -0.5 34
2020-03-27 15:00:00 11.3 11 Sur 26 Sur 0 918.9 -0.9 29
2020-03-27 14:00:00 11.7 14 Sur 24 Sur 0 919 -1.1 33
2020-03-27 13:00:00 10.7 13 Sur 24 Sur 0 919.4 -0.9 43
2020-03-27 12:00:00 8.1 8 Sur 14 Sur 0 919.8 -0.3 55
2020-03-27 11:00:00 6.4 8 Sur 14 Sur 0 920.1 0.4 62
2020-03-27 10:00:00 4.1 8 Sur 12 Sur 0 920.3 0.9 73
2020-03-27 09:00:00 1.8 5 Sur 9 Sur 0 920.1 1.2 84
2020-03-27 08:00:00 0 0 Calma 6 Noroeste 0 919.7 1.1 87
2020-03-27 07:00:00 -1.1 0 Calma 6 Noroeste 0 919.4 0.9 87
2020-03-27 06:00:00 -1 4 Noroeste 6 Noroeste 0 918.9 0.2 78
2020-03-27 05:00:00 -0.5 3 Oeste 5 Oeste 0 918.6 -0.2 83
2020-03-27 04:00:00 -0.7 2 Noroeste 6 Norte 0 918.5 -0.4 82
2020-03-27 03:00:00 -1.6 6 Norte 8 Norte 0 918.7 0 87
2020-03-27 02:00:00 0.2 2 Sur 8 Norte 0 918.8 0.2 84
2020-03-27 01:00:00 -0.6 4 Norte 7 Este 0 918.9 0.5 85
2020-03-27 00:00:00 0.2 4 Noroeste 7 Sudoeste 0 918.7 0.5 82
2020-03-26 23:00:00 1 2 Noroeste 8 Norte 0 918.6 0.8 73
2020-03-26 22:00:00 2 4 Sudoeste 15 Norte 0 918.4 1.2 73
2020-03-26 21:00:00 1 10 Noroeste 14 Noroeste 0 918.2 2 80
2020-03-26 20:00:00 1.9 4 Noroeste 19 Sur 0 917.8 2.4 78
2020-03-26 19:00:00 3.2 11 Sur 22 Sur 0 917.2 2.6 75
2020-03-26 18:00:00 4.4 12 Sudeste 30 Sur 0 916.2 1.9 70
2020-03-26 17:00:00 5.2 22 Sur 35 Sur 0 915.4 1.7 67
2020-03-26 16:00:00 7.4 12 Sur 30 Sur 0 914.6 1.1 56
2020-03-26 15:00:00 8 19 Sur 37 Sur 0 914.3 0.4 61
2020-03-26 14:00:00 7.2 16 Norte 28 Noroeste 0 913.7 -0.1 38
2020-03-26 13:00:00 9.6 5 Este 32 Noroeste 0 913.5 -0.4 39
2020-03-26 12:00:00 5 12 Oeste 29 Noroeste 1.2 913.9 0.2 58
2020-03-26 11:00:00 9.2 10 Sur 19 Sur 0 913.8 0.1 58
2020-03-26 10:00:00 5.5 6 Sur 12 Sur 0 913.9 0 76
2020-03-26 09:00:00 5.2 4 Sudeste 14 Sur 0 913.7 -0.3 74
2020-03-26 08:00:00 3.1 4 Norte 14 Noroeste 0 913.7 -1.1 83
2020-03-26 07:00:00 1.7 0 Calma 7 Sudoeste 0 913.9 -1.6 90
2020-03-26 06:00:00 1.9 4 Norte 8 Noroeste 0 914 -2 90
2020-03-26 05:00:00 2.3 3 Norte 8 Sudeste 0 914.8 -2.2 88
2020-03-26 04:00:00 3.1 5 Este 8 Sur 0 915.5 -2.1 85
2020-03-26 03:00:00 3.6 4 Oeste 14 Oeste 0 916 -2.4 79
2020-03-26 02:00:00 3.5 9 Oeste 12 Oeste 0 917 -1.9 78
2020-03-26 01:00:00 3.5 2 Sur 5 Sudoeste 0 917.6 -1.8 82
2020-03-26 00:00:00 3.5 3 Nordeste 6 Este 0 918.4 -1.4 83
2020-03-25 23:00:00 3.5 4 Este 8 Norte 0 918.9 -0.9 79
2020-03-25 22:00:00 3.8 3 Sudeste 12 Noroeste 0 919.4 -0.5 78
2020-03-25 21:00:00 3.9 10 Noroeste 16 Noroeste 0 919.8 -0.2 74
2020-03-25 20:00:00 3.9 3 Norte 8 Sudoeste 0 919.8 -0.6 79
2020-03-25 19:00:00 4.1 4 Sudoeste 15 Oeste 0 919.9 -1 76
2020-03-25 18:00:00 4.4 3 Sudeste 9 Sudoeste 0 920 -1.5 72
2020-03-25 17:00:00 4.3 5 Sur 9 Sur 0 920.4 -1.8 70
2020-03-25 16:00:00 4.2 3 Sur 12 Sur 0 920.9 -2.1 70
2020-03-25 15:00:00 4.4 6 Sur 12 Sudoeste 0 921.5 -1.9 70
2020-03-25 14:00:00 4.2 6 Sur 11 Sur 0 922.2 -1.4 71
2020-03-25 13:00:00 3.3 3 Oeste 11 Sur 0 923 -0.7 75
2020-03-25 12:00:00 2.6 4 Sur 17 Sudeste 0 923.4 0 78
2020-03-25 11:00:00 1.4 6 Sudoeste 10 Oeste 0.2 923.6 0.4 84
2020-03-25 10:00:00 1.6 3 Noroeste 11 Sur 0.2 923.7 0.9 84
2020-03-25 09:00:00 1.9 3 Sur 15 Sur 0 923.4 0.7 73
2020-03-25 08:00:00 1.8 3 Sudoeste 17 Sudeste 0 923.2 0.4 90
2020-03-25 07:00:00 1.9 7 Sur 13 Sur 0 922.8 0.1 90
2020-03-25 06:00:00 2.1 2 Norte 18 Sur 0.2 922.7 -0.3 94
2020-03-25 05:00:00 2.5 6 Sudeste 16 Sur 0.8 922.8 -0.9 95
2020-03-25 04:00:00 3.4 5 Sudeste 9 Sur 0 922.7 -1.3 93
2020-03-25 03:00:00 3.4 4 Oeste 12 Sudoeste 0.2 923 -1.2 91
2020-03-25 02:00:00 3.5 3 Sudoeste 9 Sudeste 0 923.7 -0.6 93
2020-03-25 01:00:00 3.6 3 Sudoeste 17 Sudeste 0.4 924 -0.3 95
2020-03-25 00:00:00 4.1 8 Sudeste 15 Sudeste 0.6 924.2 -0.1 94
2020-03-24 23:00:00 5.1 9 Sudeste 14 Sur 0 924.3 0.5 91
2020-03-24 22:00:00 5.5 12 Sudeste 19 Sudeste 0 924.3 0.6 86
2020-03-24 21:00:00 6.3 10 Sudeste 19 Sudeste 0 924.3 1 82
2020-03-24 20:00:00 6.9 11 Sudeste 17 Sudeste 0 923.8 0.8 80
2020-03-24 19:00:00 7.5 8 Sur 22 Sudeste 0 923.7 0.9 77
2020-03-24 18:00:00 8.6 16 Sudeste 36 Sudeste 0 923.3 0.3 73
2020-03-24 17:00:00 10.5 18 Sudeste 28 Sur 0 923 -0.6 67
2020-03-24 16:00:00 12 15 Sur 27 Sur 0 922.8 -1.4 57
2020-03-24 15:00:00 16.2 16 Sur 31 Sur 0 923 -1.8 45
2020-03-24 14:00:00 13.8 17 Sur 30 Sudeste 0 923.6 -1.9 51
2020-03-24 13:00:00 12.9 19 Sur 29 Sur 0 924.2 -1.5 55
2020-03-24 12:00:00 12.6 10 Sur 21 Sur 0 924.8 -1.2 60
2020-03-24 11:00:00 10.4 9 Sur 17 Sur 0 925.5 -0.9 68
2020-03-24 10:00:00 9.2 6 Sur 14 Sur 0 925.7 -0.3 71
2020-03-24 09:00:00 7.6 7 Sur 10 Sur 0 926 0 80
2020-03-24 08:00:00 6.5 4 Sudoeste 9 Sudoeste 0 926.4 1 85
2020-03-24 07:00:00 6.2 3 Sudeste 13 Sur 0 926 0.5 86
2020-03-24 06:00:00 6.3 5 Sur 10 Sur 0 926 0.2 89
2020-03-24 05:00:00 7.2 2 Sudoeste 10 Sudoeste 0 925.4 -0.9 80
2020-03-24 04:00:00 7.5 5 Sudoeste 11 Noroeste 0 925.5 -1 77
2020-03-24 03:00:00 7.2 9 Noroeste 10 Noroeste 0 925.8 -0.6 81
2020-03-24 02:00:00 7.6 5 Sudoeste 10 Sur 0 926.3 -0.3 78
2020-03-24 01:00:00 7.7 4 Sur 10 Sur 0 926.5 0.2 80
2020-03-24 00:00:00 7.7 5 Noroeste 8 Oeste 0 926.4 0.4 81
2020-03-23 23:00:00 7.5 5 Sur 10 Oeste 0 926.6 0.5 82
2020-03-23 22:00:00 7.1 5 Oeste 10 Oeste 0 926.3 0.7 85
2020-03-23 21:00:00 7.8 6 Oeste 16 Sur 0 926 1 80
2020-03-23 20:00:00 9.3 8 Sur 17 Sur 0 926.1 1.3 77
2020-03-23 19:00:00 9.7 5 Sudoeste 11 Sur 0 925.6 0.8 78
2020-03-23 18:00:00 10 3 Noroeste 19 Sur 0.4 925 -0.1 80
2020-03-23 17:00:00 11.4 14 Sur 26 Sur 0 924.8 -0.7 64
2020-03-23 16:00:00 11.2 18 Sur 26 Sur 0 924.8 -1.1 67
2020-03-23 15:00:00 11 16 Sur 27 Sur 0 925.1 -0.8 69
2020-03-23 14:00:00 10.1 10 Sur 23 Sur 0.2 925.5 -0.2 80
2020-03-23 13:00:00 10.7 13 Sur 25 Sur 0 925.9 0.6 71
2020-03-23 12:00:00 9.8 9 Sur 19 Sur 0 925.9 1.1 79
2020-03-23 11:00:00 10.2 9 Sur 14 Sur 0 925.7 1.3 72
2020-03-23 10:00:00 9.1 4 Oeste 13 Sur 0 925.3 1.5 83
2020-03-23 09:00:00 8.3 5 Sudoeste 10 Norte 0 924.8 1.5 92
2020-03-23 08:00:00 6.8 0 Calma 6 Sur 0 924.4 1.2 93
2020-03-23 07:00:00 6 3 Oeste 8 Sur 0 923.8 0.8 94
2020-03-23 06:00:00 6.4 4 Norte 4 Norte 0 923.3 0.4 87
2020-03-23 05:00:00 6.4 3 Sudeste 9 Noroeste 0 923.2 0.3 89
2020-03-23 04:00:00 5.4 5 Norte 8 Oeste 0 923 0 87
2020-03-23 03:00:00 5.8 4 Noroeste 9 Norte 0 922.9 -0.4 87
2020-03-23 02:00:00 6.7 4 Oeste 8 Sudoeste 0 922.9 -0.3 85
2020-03-23 01:00:00 7.4 4 Noroeste 8 Noroeste 0 923 0.3 82
2020-03-23 00:00:00 7.9 4 Oeste 13 Sudeste 0 923.3 1 81
2020-03-22 23:00:00 8.4 7 Sur 14 Sur 0 923.2 1.7 82
2020-03-22 22:00:00 7.2 7 Norte 9 Norte 0.2 922.7 2 83
2020-03-22 21:00:00 8.5 5 Noroeste 27 Sudeste 0 922.3 2.5 75
2020-03-22 20:00:00 9.9 9 Sudeste 17 Sudeste 0 921.5 2.1 71
2020-03-22 19:00:00 10.9 10 Sudeste 19 Sudeste 0 920.7 1.4 66
2020-03-22 18:00:00 12.5 12 Sur 22 Sur 0 919.8 0.2 55
2020-03-22 17:00:00 14.4 13 Sur 26 Sur 0 919.4 -0.6 46
2020-03-22 16:00:00 15.9 13 Sur 27 Sur 0 919.3 -1 42
2020-03-22 15:00:00 14.7 13 Sur 26 Sur 0 919.6 -0.7 45
2020-03-22 14:00:00 13.5 14 Sur 25 Sur 0 920 -0.1 45
2020-03-22 13:00:00 14.6 13 Sur 22 Sur 0 920.3 0.5 47
2020-03-22 12:00:00 13.9 9 Sur 16 Sur 0 920.3 0.8 49
2020-03-22 11:00:00 13 7 Sur 14 Sur 0 920.1 0.9 53
2020-03-22 10:00:00 11.7 6 Sur 12 Sur 0 919.8 1 63
2020-03-22 09:00:00 9.4 5 Sur 9 Sur 0 919.5 0.9 75
2020-03-22 08:00:00 7.2 0 Calma 5 Oeste 0 919.2 0.6 86
2020-03-22 07:00:00 6.1 3 Sudoeste 6 Sudoeste 0 918.8 0 86
2020-03-22 06:00:00 6.4 4 Noroeste 7 Noroeste 0 918.6 -0.5 82
2020-03-22 05:00:00 7 3 Sudoeste 5 Oeste 0 918.6 -0.9 80
2020-03-22 04:00:00 7.3 3 Sur 5 Sur 0 918.8 -0.8 80
2020-03-22 03:00:00 7.3 0 Calma 6 Norte 0 919.1 -0.6 80
2020-03-22 02:00:00 7.3 2 Este 8 Norte 0 919.5 -0.5 81
2020-03-22 01:00:00 6.2 4 Noroeste 10 Noroeste 0 919.6 -0.4 84
2020-03-22 00:00:00 6.8 5 Oeste 10 Oeste 0 919.7 0.1 79
2020-03-21 23:00:00 7.9 5 Sudoeste 9 Este 0 920 0.7 73
2020-03-21 22:00:00 8.6 3 Este 7 Nordeste 0 920 1.6 68
2020-03-21 21:00:00 8.6 2 Norte 7 Noroeste 0 919.6 1.6 60
2020-03-21 20:00:00 8.6 4 Norte 9 Sudeste 0 919.3 1.3 60
2020-03-21 19:00:00 10.9 4 Sudeste 20 Sudeste 0 918.4 0.1 52
2020-03-21 18:00:00 13.5 15 Sur 24 Sur 0 918 -0.8 43
2020-03-21 17:00:00 15.2 14 Sur 25 Sur 0 918 -1.4 40
2020-03-21 16:00:00 15.3 11 Sur 23 Sur 0 918.3 -1.8 34
2020-03-21 15:00:00 14.9 11 Sudeste 25 Sur 0 918.8 -2.1 35
2020-03-21 14:00:00 14.3 10 Sudeste 22 Sur 0 919.4 -2 37
2020-03-21 13:00:00 13.6 12 Sur 19 Sur 0 920.1 -1.7 37
2020-03-21 12:00:00 12.4 9 Sur 17 Sur 0 920.9 -1 38
2020-03-21 11:00:00 10.9 8 Sur 13 Sur 0 921.4 -0.4 55
2020-03-21 10:00:00 8.3 6 Sur 10 Sur 0 921.8 0 71
2020-03-21 09:00:00 6 4 Sur 8 Sur 0 921.9 -0.1 79
2020-03-21 08:00:00 4.5 0 Calma 8 Noroeste 0 921.8 -0.4 80
2020-03-21 07:00:00 2.9 2 Nordeste 4 Sudeste 0 921.8 -0.6 86
2020-03-21 06:00:00 4.1 3 Sudoeste 11 Norte 0 922 -0.6 81
2020-03-21 05:00:00 4.4 7 Noroeste 12 Norte 0 922.2 -0.8 76
2020-03-21 04:00:00 4 7 Norte 11 Norte 0 922.4 -1 82
2020-03-21 03:00:00 3.9 10 Norte 13 Norte 0 922.6 -1.3 83
2020-03-21 02:00:00 5.6 2 Oeste 8 Norte 0 923 -1.3 75
2020-03-21 01:00:00 5.1 5 Noroeste 9 Norte 0 923.4 -1.1 76
2020-03-21 00:00:00 6.6 3 Oeste 8 Noroeste 0 923.9 -0.7 70
2020-03-20 23:00:00 6.4 6 Noroeste 10 Noroeste 0 924.3 -0.1 70
2020-03-20 22:00:00 7.1 3 Noroeste 10 Noroeste 0 924.5 0.3 68
2020-03-20 21:00:00 8.5 2 Sudoeste 9 Sur 0 924.6 0.6 60
2020-03-20 20:00:00 8.9 3 Nordeste 13 Sudeste 0 924.4 0.4 58
2020-03-20 19:00:00 10.8 6 Sudeste 19 Sur 0 924.2 0.1 51
2020-03-20 18:00:00 13 10 Sur 24 Sudeste 0 924 -0.3 45
2020-03-20 17:00:00 14.4 17 Sur 28 Sur 0 924 -0.8 43
2020-03-20 16:00:00 15.6 14 Sur 24 Sur 0 924.1 -1.3 36
2020-03-20 15:00:00 16.2 12 Sudoeste 25 Sur 0 924.3 -1.6 36
2020-03-20 14:00:00 15 10 Sur 25 Sur 0 924.8 -1.5 34
2020-03-20 13:00:00 14.5 11 Sur 25 Sur 0 925.4 -0.9 41
2020-03-20 12:00:00 12.8 8 Sur 17 Sur 0 925.9 -0.2 47
2020-03-20 11:00:00 12.1 8 Sur 14 Sur 0 926.3 0.4 46
2020-03-20 10:00:00 10.9 4 Sur 10 Sur 0 926.3 0.6 61
2020-03-20 09:00:00 9.6 4 Sur 7 Sur 0 926.1 0.5 70
2020-03-20 08:00:00 7.8 3 Sur 6 Noroeste 0 925.9 0 71
2020-03-20 07:00:00 5.8 6 Norte 8 Noroeste 0 925.7 -0.2 72
2020-03-20 06:00:00 6.9 5 Oeste 6 Oeste 0 925.6 -0.6 73
2020-03-20 05:00:00 7.4 4 Sudoeste 8 Sudoeste 0 925.9 -0.7 71
2020-03-20 04:00:00 7.5 2 Sudeste 5 Sudeste 0 925.9 -0.8 75
2020-03-20 03:00:00 7.7 2 Sur 8 Noroeste 0 926.2 -0.9 77
2020-03-20 02:00:00 7.6 4 Noroeste 7 Noroeste 0 926.6 -0.7 77
2020-03-20 01:00:00 8.3 0 Calma 8 Norte 0 926.7 -0.9 73
2020-03-20 00:00:00 8.2 4 Oeste 6 Oeste 0 927.1 -0.3 73
2020-03-19 23:00:00 8.7 2 Oeste 7 Norte 0 927.3 -0.1 71
2020-03-19 22:00:00 8.5 2 Norte 10 Sudeste 0 927.6 0.6 72
2020-03-19 21:00:00 9.6 3 Nordeste 17 Sudeste 0 927.4 0.5 73
2020-03-19 20:00:00 10.7 8 Sudeste 17 Sudeste 0 927.4 0.7 71
2020-03-19 19:00:00 11.9 8 Sudeste 15 Sudeste 0 927 0.1 57
2020-03-19 18:00:00 13.9 7 Sudeste 24 Sudeste 0 926.9 -0.5 42
2020-03-19 17:00:00 16.2 16 Sur 27 Sur 0 926.7 -1.3 36
2020-03-19 16:00:00 18.3 17 Sur 27 Sur 0 926.9 -1.9 31
2020-03-19 15:00:00 17.7 13 Sur 26 Sur 0 927.4 -1.8 35
2020-03-19 14:00:00 17.2 9 Sur 21 Sur 0 928 -1.7 35
2020-03-19 13:00:00 16.6 8 Sur 15 Sur 0 928.8 -1.2 39
2020-03-19 12:00:00 15.1 6 Sudoeste 13 Sudeste 0 929.2 -0.8 57
2020-03-19 11:00:00 12.8 5 Sur 9 Sudoeste 0 929.7 0 69
2020-03-19 10:00:00 10.3 5 Sudoeste 8 Sudoeste 0 930 0.3 86
2020-03-19 09:00:00 9 2 Sudoeste 5 Oeste 0 930 0.4 94
2020-03-19 08:00:00 7.4 2 Nordeste 5 Norte 0 929.7 0.1 97
2020-03-19 07:00:00 6.3 0 Calma 3 Sudeste 0 929.7 0 96
2020-03-19 06:00:00 7 0 Calma 6 Noroeste 0 929.6 -0.6 96
2020-03-19 05:00:00 6.5 3 Noroeste 6 Norte 0 929.6 -1.1 94
2020-03-19 04:00:00 7.1 3 Norte 5 Nordeste 0 929.7 -1.3 95
2020-03-19 03:00:00 8.2 0 Calma 7 Norte 0 930.2 -1.1 93
2020-03-19 02:00:00 7.4 3 Norte 10 Norte 0 930.7 -0.8 89
2020-03-19 01:00:00 8.5 3 Noroeste 5 Norte 0 931 -0.6 84
2020-03-19 00:00:00 9.6 2 Sudoeste 6 Oeste 0 931.3 -0.2 85
2020-03-18 23:00:00 10.1 4 Oeste 5 Oeste 0 931.5 0 83
2020-03-18 22:00:00 10.1 4 Oeste 10 Norte 0 931.6 0.3 83
2020-03-18 21:00:00 10.3 7 Norte 9 Norte 0 931.5 0.3 82
2020-03-18 20:00:00 10.2 7 Norte 9 Norte 0 931.5 0.4 82
2020-03-18 19:00:00 11.5 3 Noroeste 5 Oeste 0 931.3 -0.2 75
2020-03-18 18:00:00 12.8 3 Sudoeste 9 Sur 0 931.2 -0.5 70
2020-03-18 17:00:00 13.4 6 Sur 9 Sur 0 931.1 -1.2 65
2020-03-18 16:00:00 13.5 4 Sur 10 Sur 0 931.5 -1.5 64
2020-03-18 15:00:00 13.4 6 Sur 12 Sur 0 931.7 -2 73
2020-03-18 14:00:00 13.1 4 Sur 10 Sudeste 0 932.3 -1.7 70
2020-03-18 13:00:00 12.5 5 Sur 12 Sur 0 933 -1.1 80
2020-03-18 12:00:00 11.2 6 Sur 12 Sur 0 933.7 -0.3 82
2020-03-18 11:00:00 10.1 4 Sudeste 10 Sur 0 934 0.3 87
2020-03-18 10:00:00 9.3 5 Sur 10 Sur 0 934.1 0.4 94
2020-03-18 09:00:00 8.1 0 Calma 4 Sur 0 934 0.1 97
2020-03-18 08:00:00 6.8 2 Sudoeste 6 Norte 0 933.7 -0.3 96
2020-03-18 07:00:00 6.8 2 Sudeste 6 Norte 0 933.7 -0.4 94
2020-03-18 06:00:00 6.6 3 Norte 4 Norte 0 933.9 -0.4 92
2020-03-18 05:00:00 7.4 0 Calma 6 Noroeste 0 934 -0.5 92
2020-03-18 04:00:00 7.5 5 Noroeste 6 Noroeste 0 934.1 -0.7 88
2020-03-18 03:00:00 7.5 0 Calma 4 Noroeste 0 934.3 -0.7 92
2020-03-18 02:00:00 8 3 Sudoeste 9 Norte 0 934.5 -0.9 91
2020-03-18 01:00:00 8.4 3 Oeste 6 Noroeste 0 934.8 -0.5 89
2020-03-18 00:00:00 9 0 Calma 4 Sur 0 935 -0.1 88
2020-03-17 23:00:00 9.1 3 Sur 5 Norte 0 935.4 0.8 86
2020-03-17 22:00:00 9.8 2 Sur 7 Noroeste 0 935.3 1.2 81
2020-03-17 21:00:00 9.4 0 Calma 6 Norte 0 935.1 1.2 80
2020-03-17 20:00:00 9.3 5 Norte 8 Noroeste 0 934.6 0.7 76
2020-03-17 19:00:00 10.6 5 Norte 7 Norte 0 934.1 0.1 78
2020-03-17 18:00:00 12.4 3 Sur 6 Sudoeste 0 933.9 -0.3 82
2020-03-17 17:00:00 12.6 5 Sudoeste 8 Sudoeste 0 933.9 -0.3 63
2020-03-17 16:00:00 12.6 2 Sur 7 Sudoeste 0 934 -0.3 57
2020-03-17 15:00:00 12.7 4 Sudoeste 10 Sur 0 934.2 0.2 65
2020-03-17 14:00:00 11.6 4 Sudoeste 9 Noroeste 0 934.2 0.6 87
2020-03-17 13:00:00 11.8 3 Sur 10 Sur 0 934.3 1 81
2020-03-17 12:00:00 11.3 3 Sudoeste 10 Sur 0 934 1.3 77
2020-03-17 11:00:00 10.5 4 Nordeste 8 Sur 0.2 933.6 1.4 85
2020-03-17 10:00:00 10.2 3 Sur 7 Sur 0 933.3 2 84
2020-03-17 09:00:00 9.5 6 Norte 8 Norte 0 932.7 2.2 82
2020-03-17 08:00:00 8.2 2 Norte 14 Norte 0 932.2 1.8 87
2020-03-17 07:00:00 7.9 3 Oeste 10 Sudoeste 0 931.3 1.5 86
2020-03-17 06:00:00 8.4 6 Sudoeste 12 Sur 0 930.5 0.6 82
2020-03-17 05:00:00 7.6 7 Oeste 13 Sudoeste 0 930.4 0.9 84
2020-03-17 04:00:00 8 5 Sur 15 Norte 0 929.8 0.5 81
2020-03-17 03:00:00 7.2 5 Este 11 Nordeste 0 929.9 0.7 83
2020-03-17 02:00:00 7 3 Sudoeste 9 Sur 0 929.5 0.5 86
2020-03-17 01:00:00 6.2 5 Nordeste 11 Norte 0 929.3 1.2 91
2020-03-17 00:00:00 6.6 5 Sudoeste 11 Nordeste 0 929.2 1.3 91
2020-03-16 23:00:00 6.8 6 Sudoeste 30 Nordeste 0 929 2 91
2020-03-16 22:00:00 7.9 20 Nordeste 38 Nordeste 2 928.1 2.4 83
2020-03-16 21:00:00 7.4 13 Nordeste 35 Nordeste 1.8 927.9 2.7 84
2020-03-16 20:00:00 7.5 22 Nordeste 36 Nordeste 0.6 927 2.4 82
2020-03-16 19:00:00 8.4 22 Nordeste 41 Nordeste 0 925.7 1.3 73
2020-03-16 18:00:00 8.5 18 Nordeste 37 Norte 0 925.2 1.7 74
2020-03-16 17:00:00 7.9 17 Nordeste 30 Norte 1.6 924.6 1.2 82
2020-03-16 16:00:00 7.8 14 Nordeste 33 Nordeste 1 924.4 1.1 83
2020-03-16 15:00:00 8.2 10 Nordeste 22 Nordeste 0.2 923.5 0.1 78
2020-03-16 14:00:00 7.1 11 Nordeste 22 Nordeste 1.2 923.4 0.5 86
2020-03-16 13:00:00 7 6 Nordeste 20 Norte 1.6 923.3 0.8 86
2020-03-16 12:00:00 6.9 8 Sudoeste 16 Oeste 0.8 923.4 2 86
2020-03-16 11:00:00 7.1 6 Sur 24 Este 3.4 922.9 2.2 82
2020-03-16 10:00:00 7.3 5 Sudoeste 18 Sur 4.8 922.5 2 98
2020-03-16 09:00:00 7.6 7 Sudoeste 15 Sur 2.4 921.4 1 98
2020-03-16 08:00:00 7.5 9 Sudoeste 13 Sur 1.4 920.7 0.3 98
2020-03-16 07:00:00 7.5 9 Sur 13 Sudoeste 2.6 920.5 0 96
2020-03-16 06:00:00 7.3 4 Este 17 Sudeste 1 920.4 -0.7 97
2020-03-16 05:00:00 7.3 9 Este 20 Este 2 920.4 -1.2 97
2020-03-16 04:00:00 7.2 6 Sudeste 14 Sudeste 2.4 920.5 -1.4 96
2020-03-16 03:00:00 7.3 4 Sudeste 25 Sudeste 1.2 921.1 -0.8 95
2020-03-16 02:00:00 7.5 11 Sudeste 26 Sudeste 1.2 921.6 -0.5 93
2020-03-16 01:00:00 7.6 10 Sudeste 21 Sur 2.2 921.9 -0.2 96
2020-03-16 00:00:00 7.7 6 Sur 30 Sudeste 3 921.9 0.1 96
2020-03-15 23:00:00 8.2 13 Sur 27 Sudeste 0 922.1 0.6 91
2020-03-15 22:00:00 8.8 10 Sudeste 30 Sur 0 922.1 0.9 82
2020-03-15 21:00:00 9.4 17 Sudeste 35 Sur 0 921.8 0.8 80
2020-03-15 20:00:00 9.9 16 Sudeste 27 Sudeste 0 921.5 0.5 79
2020-03-15 19:00:00 11 18 Sudeste 28 Sudeste 0 921.2 -0.1 72
2020-03-15 18:00:00 12.2 13 Sudeste 33 Sudeste 0 921 -0.4 71
2020-03-15 17:00:00 13.9 17 Sudeste 29 Sudeste 0 921 -1.4 63
2020-03-15 16:00:00 16.1 19 Sudeste 30 Sur 0 921.3 -2.1 55
2020-03-15 15:00:00 18.1 15 Sudeste 26 Sur 0 921.4 -2.9 39
2020-03-15 14:00:00 18.1 12 Sur 23 Sur 0 922.4 -2.3 34
2020-03-15 13:00:00 17.3 10 Sur 22 Sur 0 923.4 -1.6 33
2020-03-15 12:00:00 15.3 13 Sur 17 Sur 0 924.3 -0.6 39
2020-03-15 11:00:00 13.6 8 Sur 13 Sur 0 924.7 -0.1 64
2020-03-15 10:00:00 11.9 5 Sur 9 Sur 0 925 0.3 74
2020-03-15 09:00:00 10.3 4 Sudoeste 6 Sur 0 924.9 0.2 80
2020-03-15 08:00:00 8.2 3 Noroeste 7 Norte 0 924.8 -0.3 91
2020-03-15 07:00:00 6.6 5 Noroeste 9 Norte 0 924.7 -0.6 91
2020-03-15 06:00:00 7.9 5 Sudoeste 10 Norte 0 924.7 -1 88
2020-03-15 05:00:00 6.7 8 Norte 13 Noroeste 0 925.1 -0.9 91
2020-03-15 04:00:00 7.7 2 Sur 6 Norte 0 925.3 -0.9 90
2020-03-15 03:00:00 8.4 2 Oeste 5 Norte 0 925.7 -0.6 83
2020-03-15 02:00:00 9 2 Noroeste 7 Norte 0 926 -0.5 82
2020-03-15 01:00:00 9.9 2 Oeste 4 Sudeste 0 926.2 -0.2 81
2020-03-15 00:00:00 9.7 4 Oeste 9 Norte 0 926.3 0.1 83
2020-03-14 23:00:00 9.5 3 Norte 5 Norte 0 926.5 0.5 83
2020-03-14 22:00:00 9.7 6 Norte 7 Norte 0 926.4 0.9 83
2020-03-14 21:00:00 9.3 0 Calma 6 Oeste 0 926.2 1.2 82
2020-03-14 20:00:00 9.8 5 Oeste 12 Sudoeste 0 926 1.4 79
2020-03-14 19:00:00 10.9 9 Sur 15 Sur 0 925.5 0.8 76
2020-03-14 18:00:00 13.2 13 Sur 25 Sur 0 925 0 67
2020-03-14 17:00:00 15.4 18 Sur 24 Sur 0 924.6 -0.9 58
2020-03-14 16:00:00 16.3 14 Sur 22 Sur 0 924.7 -1.4 57
2020-03-14 15:00:00 16.3 14 Sur 24 Sur 0 925 -1.5 56
2020-03-14 14:00:00 15.7 14 Sur 22 Sur 0 925.5 -1 59
2020-03-14 13:00:00 15.4 13 Sur 22 Sur 0 926.1 -0.3 62
2020-03-14 12:00:00 13.7 11 Sudeste 21 Sur 0 926.5 0.5 71
2020-03-14 11:00:00 13.1 8 Sur 13 Sur 0 926.5 1 75
2020-03-14 10:00:00 10.3 4 Sur 6 Sur 0 926.4 1.4 88
2020-03-14 09:00:00 9.3 3 Sudoeste 6 Sur 0 926 1.1 94
2020-03-14 08:00:00 9.2 4 Sudoeste 7 Oeste 0 925.5 0.7 94
2020-03-14 07:00:00 7.5 7 Norte 9 Norte 0 925 0.4 94
2020-03-14 06:00:00 9.1 0 Calma 6 Nordeste 0 924.9 -0.2 92
2020-03-14 05:00:00 9.1 3 Noroeste 8 Norte 0 924.8 -0.6 93
2020-03-14 04:00:00 9.2 3 Sudoeste 6 Norte 0 924.6 -0.8 90
2020-03-14 03:00:00 9.1 4 Noroeste 10 Norte 0 925.1 -0.5 91
2020-03-14 02:00:00 9.2 3 Sur 5 Sudoeste 0 925.4 -0.1 88
2020-03-14 01:00:00 9.2 3 Nordeste 7 Nordeste 0 925.4 -0.1 89
2020-03-14 00:00:00 9.9 5 Este 7 Este 0 925.6 0.2 83
2020-03-13 23:00:00 10.2 4 Norte 8 Este 0 925.5 0.3 81
2020-03-13 22:00:00 11.3 4 Sudoeste 13 Norte 0 925.5 0.6 77
2020-03-13 21:00:00 11.7 7 Norte 14 Nordeste 0 925.4 0.7 76
2020-03-13 20:00:00 11.7 3 Nordeste 10 Norte 0 925.2 0.5 77
2020-03-13 19:00:00 12.3 4 Nordeste 17 Sudoeste 0 924.9 -0.1 73
2020-03-13 18:00:00 13 0 Calma 11 Sur 0 924.7 -0.8 69
2020-03-13 17:00:00 13.9 9 Sur 19 Sur 0 924.7 -1.3 69
2020-03-13 16:00:00 15.8 6 Sur 19 Noroeste 0 925 -1.7 61
2020-03-13 15:00:00 14 14 Noroeste 23 Oeste 0 925.5 -1.5 70
2020-03-13 14:00:00 14.4 7 Sudoeste 16 Oeste 0 926 -0.7 69
2020-03-13 13:00:00 13.7 5 Sudeste 13 Sudeste 0 926.7 -0.4 69
2020-03-13 12:00:00 13.5 5 Sur 17 Sur 0 927 0.5 67
2020-03-13 11:00:00 14 10 Sur 16 Sur 0 926.7 0.7 72
2020-03-13 10:00:00 11.5 5 Sur 9 Sur 0 927.1 1.7 89
2020-03-13 09:00:00 11.2 3 Sudoeste 6 Sur 0 926.5 1 89
2020-03-13 08:00:00 10.3 3 Sudoeste 8 Noroeste 0 926 0.6 80
2020-03-13 07:00:00 10.4 5 Noroeste 7 Noroeste 0 925.4 0.3 79
2020-03-13 06:00:00 11 4 Oeste 8 Sur 0 925.5 0 86
2020-03-13 05:00:00 11.5 0 Calma 8 Sur 0 925.4 -0.1 85
2020-03-13 04:00:00 12.3 5 Sur 17 Norte 0 925.1 -0.2 79
2020-03-13 03:00:00 12.6 12 Oeste 30 Nordeste 0.2 925.5 -1.1 81
2020-03-13 02:00:00 13.9 10 Sudeste 42 Oeste 0 925.5 -1.4 70
2020-03-13 01:00:00 13.4 9 Oeste 36 Nordeste 0.4 925.3 -0.3 76
2020-03-13 00:00:00 14.2 9 Este 32 Oeste 0.6 926.6 0.8 72
2020-03-12 23:00:00 14.8 12 Noroeste 22 Oeste 0 926.9 1.9 65
2020-03-12 22:00:00 17.1 8 Norte 36 Norte 0 925.6 0.9 50
2020-03-12 21:00:00 18.1 8 Noroeste 12 Norte 0 925.8 1.1 41
2020-03-12 20:00:00 17.4 4 Norte 15 Noroeste 0 925 0.1 44
2020-03-12 19:00:00 18.1 5 Noroeste 8 Noroeste 0 924.7 -0.6 43
2020-03-12 18:00:00 21.1 3 Norte 12 Sur 0 924.7 -1.2 40
2020-03-12 17:00:00 23 12 Sur 18 Sur 0 924.9 -2 34
2020-03-12 16:00:00 24 12 Sur 17 Sur 0 925.3 -2.5 29
2020-03-12 15:00:00 23.3 8 Sur 15 Sur 0 925.9 -2.3 27
2020-03-12 14:00:00 21.7 8 Sur 14 Sur 0 926.9 -1.9 34
2020-03-12 13:00:00 20.1 7 Sur 13 Sur 0 927.8 -1.1 42
2020-03-12 12:00:00 18.2 6 Sur 12 Sur 0 928.2 -0.7 50
2020-03-12 11:00:00 16.4 7 Sur 10 Sur 0 928.8 0.1 54
2020-03-12 10:00:00 14.3 5 Sur 8 Sur 0 928.9 0.6 57
2020-03-12 09:00:00 13.3 3 Sur 7 Norte 0 928.9 0.9 57
2020-03-12 08:00:00 11.1 5 Norte 7 Norte 0 928.7 0.8 63
2020-03-12 07:00:00 10 4 Sudoeste 5 Sudoeste 0 928.3 0.1 65
2020-03-12 06:00:00 9.7 3 Norte 5 Norte 0 928 -0.7 64
2020-03-12 05:00:00 11.3 3 Sudoeste 4 Norte 0 927.9 -1.1 62
2020-03-12 04:00:00 11.6 2 Sudoeste 9 Norte 0 928.2 -1.1 59
2020-03-12 03:00:00 12.5 2 Oeste 5 Oeste 0 928.7 -0.8 56
2020-03-12 02:00:00 12.6 3 Oeste 11 Norte 0 929 -0.4 55
2020-03-12 01:00:00 11.6 6 Norte 7 Norte 0 929.3 -0.2 57
2020-03-12 00:00:00 14.1 0 Calma 6 Noroeste 0 929.5 0.3 50
2020-03-11 23:00:00 13.4 3 Norte 8 Oeste 0 929.4 0.5 49
2020-03-11 22:00:00 14.2 6 Oeste 10 Norte 0 929.5 1.1 52
2020-03-11 21:00:00 14.6 3 Este 9 Sudoeste 0 929.2 1.1 50
2020-03-11 20:00:00 17.1 14 Oeste 31 Noroeste 0 928.9 0.8 40
2020-03-11 19:00:00 17.3 15 Noroeste 20 Noroeste 0 928.4 0.3 41
2020-03-11 18:00:00 20.5 10 Sudoeste 16 Sudoeste 0 928.1 -0.2 35
2020-03-11 17:00:00 21.7 9 Sur 18 Sur 0 928.1 -0.8 29
2020-03-11 16:00:00 22.3 11 Sur 17 Sur 0 928.1 -1.5 27
2020-03-11 15:00:00 21.4 9 Sur 18 Sur 0 928.3 -2 26
2020-03-11 14:00:00 20.5 7 Sur 15 Sur 0 928.9 -1.5 25
2020-03-11 13:00:00 18.9 10 Sur 15 Sur 0 929.6 -0.6 36
2020-03-11 12:00:00 16.5 5 Sur 15 Sur 0 930.3 0.3 46
2020-03-11 11:00:00 13.9 8 Sur 14 Sur 0 930.4 0.6 58
2020-03-11 10:00:00 11.9 4 Sur 9 Sur 0 930.2 0.8 62
2020-03-11 09:00:00 11.5 2 Sudoeste 7 Sur 0 930 0.9 62
2020-03-11 08:00:00 8.7 6 Norte 8 Norte 0 929.8 0.7 68
2020-03-11 07:00:00 7.1 3 Nordeste 5 Nordeste 0 929.4 0.4 70
2020-03-11 06:00:00 7.4 3 Sur 7 Oeste 0 929.1 -0.3 72
2020-03-11 05:00:00 7.8 3 Este 6 Sudoeste 0 929.1 -0.6 67
2020-03-11 04:00:00 8 4 Oeste 8 Norte 0 929 -0.7 69
2020-03-11 03:00:00 8.4 5 Sudoeste 12 Norte 0 929.4 -0.4 69
2020-03-11 02:00:00 9.5 5 Noroeste 7 Oeste 0 929.7 0 61
2020-03-11 01:00:00 9 4 Nordeste 8 Norte 0 929.7 -0.1 66
2020-03-11 00:00:00 10.4 4 Sudoeste 12 Noroeste 0 929.8 0.3 60
2020-03-10 23:00:00 11.3 5 Oeste 12 Norte 0 929.7 0.3 56
2020-03-10 22:00:00 12.1 2 Oeste 9 Norte 0 929.8 0.7 53
2020-03-10 21:00:00 11.8 10 Norte 14 Norte 0 929.5 0.7 56
2020-03-10 20:00:00 11.9 4 Nordeste 9 Norte 0 929.4 0.8 53
2020-03-10 19:00:00 11.9 7 Norte 8 Norte 0 929.1 0.5 53
2020-03-10 18:00:00 14.9 4 Sudoeste 10 Sudeste 0 928.8 0 42
2020-03-10 17:00:00 15.6 3 Sudoeste 14 Sur 0 928.6 -0.5 38
2020-03-10 16:00:00 15.7 7 Sur 13 Sur 0 928.6 -1.2 40
2020-03-10 15:00:00 15.1 6 Sur 13 Sur 0 928.8 -1.2 41
2020-03-10 14:00:00 12.4 5 Sur 10 Sur 0 929.1 -0.9 45
2020-03-10 13:00:00 11.7 5 Sur 15 Sur 0 929.8 -0.2 46
2020-03-10 12:00:00 12.9 9 Sur 14 Sudoeste 0 930 0.5 43
2020-03-10 11:00:00 10.2 7 Sur 14 Sur 0 930 1 51
2020-03-10 10:00:00 8.5 4 Sur 12 Sur 0 930 1.5 56
2020-03-10 09:00:00 6.7 5 Sur 8 Sur 0 929.5 1.3 59
2020-03-10 08:00:00 4.3 4 Sudoeste 8 Noroeste 0 929 1.1 65
2020-03-10 07:00:00 3.2 0 Calma 5 Oeste 0 928.5 0.7 65
2020-03-10 06:00:00 3.4 2 Oeste 14 Norte 0 928.2 0.5 64
2020-03-10 05:00:00 4.6 10 Noroeste 13 Noroeste 0 927.9 0.3 59
2020-03-10 04:00:00 4.5 5 Noroeste 8 Sudoeste 0 927.8 0.2 57
2020-03-10 03:00:00 4.8 2 Sur 12 Noroeste 0 927.7 0.2 56
2020-03-10 02:00:00 6.1 10 Noroeste 12 Noroeste 0 927.6 -0.2 52
2020-03-10 01:00:00 6.4 4 Noroeste 13 Noroeste 0 927.6 0.2 49
2020-03-10 00:00:00 5.4 8 Norte 14 Norte 0 927.5 0.5 52
2020-03-09 23:00:00 5.8 10 Noroeste 17 Norte 0 927.8 1.7 51
2020-03-09 22:00:00 6 9 Norte 16 Noroeste 0 927.4 1.8 49
2020-03-09 21:00:00 7.4 5 Noroeste 19 Noroeste 0 927 2.1 44
2020-03-09 20:00:00 8.3 11 Norte 25 Nordeste 0 926.1 1.6 41
2020-03-09 19:00:00 9.5 11 Norte 26 Nordeste 0 925.6 1.3 36
2020-03-09 18:00:00 11.6 12 Norte 34 Norte 0 924.9 0.9 31
2020-03-09 17:00:00 12.5 23 Norte 54 Norte 0 924.5 0 28
2020-03-09 16:00:00 14.2 24 Norte 45 Norte 0 924.3 -0.9 22
2020-03-09 15:00:00 15.5 12 Norte 32 Noroeste 0 924 -1.8 22
2020-03-09 14:00:00 15.6 11 Norte 36 Norte 0 924.5 -1.6 20
2020-03-09 13:00:00 14.9 19 Oeste 34 Noroeste 0 925.2 -1 31
2020-03-09 12:00:00 13.7 19 Sudoeste 34 Oeste 0 925.8 -0.4 36
2020-03-09 11:00:00 11.5 9 Sudeste 15 Sur 0 926.1 0.1 49
2020-03-09 10:00:00 8.5 5 Sur 12 Sur 0 926.2 0.6 64
2020-03-09 09:00:00 7.2 5 Sur 9 Sudeste 0 926.2 0.8 74
2020-03-09 08:00:00 5.1 5 Sur 9 Norte 0 926 1.1 79
2020-03-09 07:00:00 5.3 5 Sudoeste 16 Noroeste 0 925.6 0.6 78
2020-03-09 06:00:00 4.6 3 Este 8 Sudeste 0 925.4 -0.2 82
2020-03-09 05:00:00 5 3 Noroeste 10 Nordeste 0 924.9 -0.9 79
2020-03-09 04:00:00 5 0 Calma 8 Nordeste 0 925 -1.1 79
2020-03-09 03:00:00 6 5 Sudeste 9 Sur 0 925.6 -0.4 78
2020-03-09 02:00:00 6.2 5 Norte 11 Este 0 925.8 -0.9 79
2020-03-09 01:00:00 6.4 6 Norte 10 Norte 0 926.1 -0.5 76
2020-03-09 00:00:00 7.7 3 Este 8 Norte 0 926 -0.6 71
2020-03-08 23:00:00 8.3 3 Oeste 11 Norte 0 926.7 0.2 68
2020-03-08 22:00:00 8.6 6 Oeste 10 Oeste 0 926.6 0.3 70
2020-03-08 21:00:00 9.8 6 Oeste 17 Noroeste 0 926.6 0.4 65
2020-03-08 20:00:00 10.5 9 Oeste 13 Noroeste 0 926.5 0.5 62
2020-03-08 19:00:00 11.7 5 Noroeste 20 Oeste 0 926.3 0.3 52
2020-03-08 18:00:00 13.2 13 Oeste 27 Sudoeste 0 926.2 -0.2 44
2020-03-08 17:00:00 14.4 12 Sudoeste 32 Sudoeste 0 926 -0.7 37
2020-03-08 16:00:00 15.7 16 Sudoeste 31 Sudoeste 0 926 -1.6 34
2020-03-08 15:00:00 15.4 15 Oeste 26 Sur 0 926.4 -2 31
2020-03-08 14:00:00 15.3 8 Sur 18 Sur 0 926.7 -2.3 36
2020-03-08 13:00:00 13.4 8 Sur 18 Sur 0 927.6 -1.4 42
2020-03-08 12:00:00 12.3 6 Sur 16 Sur 0 928.4 -0.6 45
2020-03-08 11:00:00 10.6 7 Sur 13 Sur 0 929 0.7 45
2020-03-08 10:00:00 9.2 5 Sur 12 Sur 0 929 1.1 54
2020-03-08 09:00:00 8.1 5 Sur 9 Sur 0 929 1.1 55
2020-03-08 08:00:00 5.9 3 Este 10 Noroeste 0 928.3 0.3 61
2020-03-08 07:00:00 3.5 5 Norte 8 Norte 0 927.9 -0.3 65
2020-03-08 06:00:00 5.2 3 Oeste 6 Noroeste 0 927.9 -0.6 59
2020-03-08 05:00:00 5.5 0 Calma 10 Noroeste 0 928 -0.7 57
2020-03-08 04:00:00 4.8 9 Norte 11 Norte 0 928.2 -0.8 61
2020-03-08 03:00:00 6.3 8 Norte 13 Norte 0 928.5 -0.6 56
2020-03-08 02:00:00 7.9 4 Norte 15 Norte 0 928.7 -0.2 50
2020-03-08 01:00:00 7.9 9 Norte 15 Norte 0 929 0.6 49
2020-03-08 00:00:00 7.8 8 Norte 12 Norte 0 929.1 1.1 50
2020-03-07 23:00:00 8.3 6 Sudoeste 15 Norte 0 928.9 1.5 47
2020-03-07 22:00:00 7.9 11 Noroeste 17 Nordeste 0 928.4 1.9 47
2020-03-07 21:00:00 9.1 11 Nordeste 18 Este 0 928 2.3 45
2020-03-07 20:00:00 9.6 12 Nordeste 19 Nordeste 0 927.4 2.1 42
2020-03-07 19:00:00 9.5 7 Norte 17 Nordeste 0 926.5 1.5 41
2020-03-07 18:00:00 11 9 Nordeste 15 Nordeste 0 925.7 1.1 35
2020-03-07 17:00:00 13.2 7 Sur 18 Sur 0 925.3 0.5 25
2020-03-07 16:00:00 14.7 7 Sudoeste 26 Sur 0 925 -0.1 23
2020-03-07 15:00:00 14.4 9 Sudeste 20 Sur 0 924.6 -0.5 21
2020-03-07 14:00:00 14 9 Sudeste 19 Sudeste 0 924.8 0.4 22
2020-03-07 13:00:00 13.2 10 Sudeste 25 Sur 0 925.1 1 26
2020-03-07 12:00:00 13.1 15 Sur 26 Sur 0 925.1 1.5 29
2020-03-07 11:00:00 10.2 8 Sur 22 Sur 0 924.4 1.1 34
2020-03-07 10:00:00 8.5 8 Sur 15 Sudoeste 0 924.1 0.8 41
2020-03-07 09:00:00 6.2 5 Sur 13 Sudeste 0 923.6 0.5 46
2020-03-07 08:00:00 3.5 5 Este 11 Sudeste 0 923.3 0.5 54
2020-03-07 07:00:00 1.6 5 Oeste 13 Este 0 923.3 0.1 61
2020-03-07 06:00:00 0.8 11 Nordeste 28 Oeste 0 923.1 0.1 70
2020-03-07 05:00:00 1.5 12 Oeste 22 Sudoeste 0 922.8 -0.3 68
2020-03-07 04:00:00 0.2 4 Oeste 20 Sudoeste 0 923.2 0.3 71
2020-03-07 03:00:00 0.9 11 Sur 19 Nordeste 0 923 -0.1 69
2020-03-07 02:00:00 1.7 13 Nordeste 48 Nordeste 0 923.1 0.5 70
2020-03-07 01:00:00 3.6 23 Norte 38 Nordeste 0 922.9 0.8 52
2020-03-07 00:00:00 3.5 24 Noroeste 37 Norte 0 923.1 2.3 47
2020-03-06 23:00:00 3.3 22 Norte 36 Norte 0 922.6 2.3 53
2020-03-06 22:00:00 3.5 20 Norte 49 Norte 0 922.1 3.2 51
2020-03-06 21:00:00 2.8 35 Norte 52 Norte 0 920.8 3.3 58
2020-03-06 20:00:00 3.3 15 Norte 33 Norte 0 920.3 4.4 58
2020-03-06 19:00:00 4.4 21 Noroeste 49 Noroeste 0 918.9 3.4 50
2020-03-06 18:00:00 6.4 29 Noroeste 47 Oeste 0 917.5 3 45
2020-03-06 17:00:00 8.9 14 Norte 40 Noroeste 0 915.9 1.5 26
2020-03-06 16:00:00 9.7 24 Noroeste 44 Noroeste 0 915.5 1 25
2020-03-06 15:00:00 11.8 21 Noroeste 39 Sudoeste 0 914.5 -0.3 24
2020-03-06 14:00:00 10.2 24 Noroeste 48 Oeste 0 914.4 -0.8 46
2020-03-06 13:00:00 9.7 26 Oeste 46 Sudoeste 0 914.5 -0.9 47
2020-03-06 12:00:00 9.9 13 Oeste 30 Sudoeste 0 914.8 -0.6 48
2020-03-06 11:00:00 8.7 12 Sudoeste 22 Sudoeste 0 915.2 -0.3 51
2020-03-06 10:00:00 6.1 6 Sur 15 Sur 0 915.4 0.2 66
2020-03-06 09:00:00 3.9 4 Este 11 Sur 0 915.4 0.1 72
2020-03-06 08:00:00 1.6 3 Este 12 Norte 0 915.5 0.5 76
2020-03-06 07:00:00 0.6 6 Sudoeste 12 Sudoeste 0 915.2 0.4 80
2020-03-06 06:00:00 0.3 6 Noroeste 23 Norte 0 915.3 0.2 79
2020-03-06 05:00:00 1.4 12 Norte 17 Noroeste 0 915 -0.3 72
2020-03-06 04:00:00 1.5 4 Noroeste 8 Este 0 914.8 -0.5 72
2020-03-06 03:00:00 1.9 7 Norte 12 Noroeste 0 915.1 -0.2 69
2020-03-06 02:00:00 3.1 4 Noroeste 12 Este 0 915.3 0.5 76
2020-03-06 01:00:00 3 4 Este 10 Norte 0 915.3 1 76
2020-03-06 00:00:00 5.1 3 Norte 19 Noroeste 0 915.3 1.4 58
2020-03-05 23:00:00 4.7 3 Norte 21 Norte 0 914.8 1.8 68
2020-03-05 22:00:00 5.7 14 Norte 27 Noroeste 0 914.3 1.6 66
2020-03-05 21:00:00 6.6 10 Noroeste 26 Noroeste 0 913.9 2.3 66
2020-03-05 20:00:00 7.6 18 Noroeste 31 Noroeste 0 913 1.7 66
2020-03-05 19:00:00 8.4 20 Noroeste 45 Noroeste 0 912.7 1.9 64
2020-03-05 18:00:00 10.3 33 Oeste 53 Oeste 0 911.6 0.3 57
2020-03-05 17:00:00 10.4 32 Oeste 53 Oeste 0 911.3 -0.8 61
2020-03-05 16:00:00 10.7 32 Oeste 59 Sudoeste 0 910.8 -2.6 68
2020-03-05 15:00:00 10.4 18 Oeste 31 Oeste 4 911.3 -2.7 89
2020-03-05 14:00:00 10.4 17 Oeste 42 Oeste 0.8 912.1 -2.6 84
2020-03-05 13:00:00 10.2 26 Oeste 43 Oeste 0.8 913.4 -1.7 81
2020-03-05 12:00:00 11.4 28 Oeste 39 Oeste 0 914 -1.9 77
2020-03-05 11:00:00 9.3 5 Sur 8 Sur 0.2 914.7 -1.8 89
2020-03-05 10:00:00 9.4 5 Sur 11 Sur 0 915.1 -1.5 82
2020-03-05 09:00:00 8.9 4 Sur 7 Sur 0 915.9 -1.3 87
2020-03-05 08:00:00 7.6 3 Sudoeste 5 Sudoeste 0 916.5 -1.5 89
2020-03-05 07:00:00 7.1 0 Calma 8 Norte 0 916.6 -2 89
2020-03-05 06:00:00 7.1 2 Norte 12 Norte 0 917.2 -2.5 87
2020-03-05 05:00:00 7.9 5 Noroeste 9 Sur 0 918 -2.5 86
2020-03-05 04:00:00 8.4 2 Sudeste 6 Noroeste 0 918.6 -2.2 82
2020-03-05 03:00:00 8.4 4 Noroeste 9 Noroeste 0 919.7 -1.9 80
2020-03-05 02:00:00 8.5 9 Noroeste 10 Noroeste 0 920.5 -1.4 82
2020-03-05 01:00:00 9.5 4 Sudoeste 8 Norte 0 920.8 -1.3 79
2020-03-05 00:00:00 10.1 4 Oeste 11 Noroeste 0 921.6 -0.4 77